Time;durP1;ratioP1;P1;durP2;ratioP2;P2;SDS_P1;SDS_P2;PMS_P1;PMS_P2;Temp;Humidity;BMP_temperature;BMP_pressure;BME280_temperature;BME280_humidity;BME280_pressure;Samples;Min_cycle;Max_cycle;Signal;HPM_P1;HPM_P2
2021/10/09 00:03:22;;;;;;;14.80;8.30;;;;;;;7.77;52.85;100604.63;233981;1205;137980;-62
2021/10/09 00:08:25;;;;;;;15.40;8.00;;;;;;;7.71;52.94;100598.42;234216;1205;139213;-68
2021/10/09 00:13:28;;;;;;;19.30;8.00;;;;;;;7.67;53.21;100592.16;234103;1205;140704;-63
2021/10/09 00:18:31;;;;;;;15.80;7.80;;;;;;;7.61;53.17;100588.59;234284;1205;138264;-68
2021/10/09 00:23:34;;;;;;;15.40;7.40;;;;;;;7.56;53.41;100585.73;234284;1205;138503;-64
2021/10/09 00:28:37;;;;;;;14.50;7.30;;;;;;;7.51;53.41;100587.61;234286;1205;138735;-64
2021/10/09 00:33:40;;;;;;;14.80;8.20;;;;;;;7.43;53.47;100592.73;234153;1205;138332;-66
2021/10/09 00:38:43;;;;;;;17.80;8.00;;;;;;;7.36;53.64;100592.04;234309;1204;138227;-66
2021/10/09 00:43:47;;;;;;;17.00;8.10;;;;;;;7.30;53.73;100593.23;234253;1205;138578;-62
2021/10/09 00:48:49;;;;;;;14.80;7.90;;;;;;;7.25;53.73;100588.41;234282;1205;138213;-61
2021/10/09 00:53:53;;;;;;;17.30;8.20;;;;;;;7.21;53.99;100588.86;234237;1205;138730;-68
2021/10/09 00:58:56;;;;;;;14.60;7.80;;;;;;;7.17;54.25;100588.08;234123;1205;138222;-67
2021/10/09 01:03:59;;;;;;;14.90;8.60;;;;;;;7.14;54.42;100587.27;234177;1205;138499;-66
2021/10/09 01:09:03;;;;;;;17.20;8.50;;;;;;;7.10;54.52;100585.73;234190;1205;139788;-65
2021/10/09 01:14:06;;;;;;;16.20;8.00;;;;;;;7.07;54.83;100581.05;234274;1205;139064;-64
2021/10/09 01:19:10;;;;;;;16.30;8.30;;;;;;;7.05;54.71;100579.70;234225;1205;138618;-67
2021/10/09 01:24:16;;;;;;;16.10;7.80;;;;;;;6.98;54.58;100574.73;234173;1205;138288;-70
2021/10/09 01:29:21;;;;;;;13.90;8.00;;;;;;;6.93;54.71;100569.75;234133;1206;138089;-69
2021/10/09 01:34:29;;;;;;;15.10;7.90;;;;;;;6.89;54.89;100568.77;234258;1204;138468;-65
2021/10/09 01:39:49;;;;;;;15.80;8.60;;;;;;;6.90;55.19;100566.80;234038;1205;138324;-65
2021/10/09 01:45:00;;;;;;;12.80;8.30;;;;;;;6.86;55.00;100568.47;234110;1205;138133;-67
2021/10/09 01:50:03;;;;;;;16.70;8.50;;;;;;;6.80;55.06;100562.79;234108;1205;139006;-66
2021/10/09 01:55:07;;;;;;;15.50;8.20;;;;;;;6.76;55.07;100561.29;234460;1205;138709;-65
2021/10/09 02:00:11;;;;;;;15.70;8.90;;;;;;;6.73;55.32;100557.84;234072;1204;138732;-66
2021/10/09 02:05:20;;;;;;;17.60;8.80;;;;;;;6.68;55.40;100561.98;234377;1204;138736;-70
2021/10/09 02:10:24;;;;;;;15.20;7.90;;;;;;;6.65;55.36;100565.23;234415;1204;138027;-62
2021/10/09 02:15:37;;;;;;;14.10;8.80;;;;;;;6.61;55.67;100564.42;234347;1204;138587;-64
2021/10/09 02:26:06;;;;;;;18.80;9.20;;;;;;;6.56;55.99;100563.84;234240;1205;138067;-65
2021/10/09 02:31:10;;;;;;;15.80;8.70;;;;;;;6.54;56.28;100561.40;234464;1204;138569;-65
2021/10/09 02:36:14;;;;;;;15.10;8.60;;;;;;;6.53;56.33;100563.55;234373;1205;138695;-62
2021/10/09 02:41:18;;;;;;;15.60;9.50;;;;;;;6.49;56.26;100560.28;234317;1204;139295;-62
2021/10/09 02:46:22;;;;;;;15.50;9.10;;;;;;;6.44;56.32;100559.34;234366;1204;139866;-65
2021/10/09 02:51:25;;;;;;;15.70;8.80;;;;;;;6.39;56.50;100555.19;234334;1204;138232;-62
2021/10/09 02:56:29;;;;;;;19.80;9.40;;;;;;;6.36;56.56;100556.32;234388;1204;138669;-63
2021/10/09 03:01:33;;;;;;;17.50;9.30;;;;;;;6.33;56.59;100560.80;234482;1204;139228;-61
2021/10/09 03:06:36;;;;;;;16.80;9.40;;;;;;;6.31;56.95;100568.06;234220;1204;138114;-70
2021/10/09 03:11:39;;;;;;;20.60;9.20;;;;;;;6.25;56.79;100571.35;234395;1204;139842;-63
2021/10/09 03:16:43;;;;;;;16.00;8.80;;;;;;;6.20;57.06;100570.38;234359;1204;138918;-64
2021/10/09 03:21:47;;;;;;;19.20;9.30;;;;;;;6.17;56.94;100570.62;234315;1205;138709;-62
2021/10/09 03:26:50;;;;;;;17.10;8.90;;;;;;;6.12;56.95;100574.24;234344;1204;138632;-69
2021/10/09 03:31:59;;;;;;;18.90;9.30;;;;;;;6.07;57.10;100577.86;234299;1204;138250;-64
2021/10/09 03:37:04;;;;;;;21.10;9.70;;;;;;;6.02;57.41;100577.61;234514;1204;140193;-64
2021/10/09 03:42:15;;;;;;;15.60;9.30;;;;;;;5.98;57.67;100579.44;234412;1205;138539;-64
2021/10/09 03:47:24;;;;;;;16.40;9.40;;;;;;;5.94;57.64;100577.91;234241;1205;138606;-59
2021/10/09 03:52:41;;;;;;;16.00;9.60;;;;;;;5.89;57.95;100585.01;234278;1205;138610;-65
2021/10/09 03:57:45;;;;;;;15.20;9.50;;;;;;;5.83;57.78;100583.20;233805;1205;138817;-65
2021/10/09 04:02:49;;;;;;;18.30;10.20;;;;;;;5.77;57.93;100588.07;234250;1204;140020;-62
2021/10/09 04:07:53;;;;;;;17.10;9.70;;;;;;;5.72;58.17;100586.55;234315;1204;138536;-61
2021/10/09 04:12:56;;;;;;;19.20;9.90;;;;;;;5.70;58.27;100587.81;234394;1204;138454;-64
2021/10/09 04:18:00;;;;;;;15.30;9.90;;;;;;;5.69;58.20;100596.11;234254;1205;139482;-64
2021/10/09 04:23:05;;;;;;;15.50;9.50;;;;;;;5.66;58.45;100593.87;234337;1204;139367;-66
2021/10/09 04:28:08;;;;;;;17.10;10.00;;;;;;;5.64;58.47;100600.95;234240;1205;138467;-64
2021/10/09 04:33:11;;;;;;;18.30;10.10;;;;;;;5.63;58.52;100600.26;234364;1204;138623;-65
2021/10/09 04:38:15;;;;;;;16.30;9.70;;;;;;;5.61;58.69;100603.80;234332;1204;138785;-63
2021/10/09 04:43:19;;;;;;;17.00;10.00;;;;;;;5.59;58.73;100612.13;234493;1204;141047;-70
2021/10/09 04:48:23;;;;;;;20.30;9.60;;;;;;;5.58;58.75;100609.69;234347;1204;138563;-64
2021/10/09 04:53:26;;;;;;;18.80;10.40;;;;;;;5.58;58.87;100617.08;234228;1204;138461;-66
2021/10/09 04:58:29;;;;;;;59.30;33.50;;;;;;;5.62;59.37;100620.70;234340;1204;139080;-65
2021/10/09 05:03:33;;;;;;;22.20;10.70;;;;;;;5.73;59.23;100622.30;234325;1204;138772;-65
2021/10/09 05:08:39;;;;;;;21.40;10.00;;;;;;;5.78;59.17;100624.85;232730;1204;140861;-68
2021/10/09 05:13:47;;;;;;;18.30;10.50;;;;;;;5.79;59.07;100622.52;232696;1204;138791;-69
2021/10/09 05:18:53;;;;;;;20.50;11.10;;;;;;;5.83;58.85;100629.87;233188;1205;138042;-67
2021/10/09 05:23:57;;;;;;;21.20;10.50;;;;;;;5.81;58.87;100631.12;234234;1205;138861;-64
2021/10/09 05:29:01;;;;;;;62.60;34.70;;;;;;;5.78;59.13;100634.34;234265;1204;139562;-65
2021/10/09 05:34:04;;;;;;;19.10;11.60;;;;;;;5.86;59.41;100638.45;234302;1204;138422;-65
2021/10/09 05:39:09;;;;;;;17.80;10.40;;;;;;;5.87;58.97;100638.95;234306;1204;138914;-67
2021/10/09 05:44:12;;;;;;;20.10;9.50;;;;;;;5.84;58.91;100635.48;234332;1204;138898;-64
2021/10/09 05:49:16;;;;;;;23.30;10.50;;;;;;;5.80;58.96;100641.02;234347;1204;138797;-65
2021/10/09 07:02:50;;;;;;;22.10;11.40;;;;;;;6.70;59.11;100709.41;234293;1204;138711;-69
2021/10/09 07:07:58;;;;;;;23.70;12.30;;;;;;;6.69;59.06;100705.37;234392;1204;138832;-60
2021/10/09 07:13:10;;;;;;;24.10;11.90;;;;;;;6.72;59.15;100712.00;234453;1204;139497;-67
2021/10/09 07:18:14;;;;;;;22.20;12.10;;;;;;;6.78;59.18;100715.23;234169;1204;138613;-65
2021/10/09 07:23:17;;;;;;;23.80;11.30;;;;;;;6.82;58.98;100716.40;234404;1204;139176;-67
2021/10/09 07:28:22;;;;;;;33.60;16.80;;;;;;;6.92;59.47;100723.77;234199;1205;138607;-60
2021/10/09 07:33:25;;;;;;;22.40;12.80;;;;;;;7.07;59.08;100728.77;234319;1204;138262;-64
2021/10/09 07:38:30;;;;;;;21.00;11.80;;;;;;;7.14;58.82;100736.05;234318;1204;138551;-64
2021/10/09 07:43:33;;;;;;;27.50;13.80;;;;;;;7.22;59.12;100738.68;234418;1204;138982;-63
2021/10/09 07:48:36;;;;;;;23.80;12.70;;;;;;;7.35;58.80;100731.36;234383;1204;139723;-63
2021/10/09 07:53:39;;;;;;;20.30;11.20;;;;;;;7.42;58.64;100732.27;234327;1205;140977;-64
2021/10/09 07:58:42;;;;;;;18.50;11.60;;;;;;;7.49;58.30;100729.83;234271;1204;138428;-62
2021/10/09 08:03:45;;;;;;;21.40;11.80;;;;;;;7.54;57.92;100730.05;234207;1204;138568;-63
2021/10/09 08:08:49;;;;;;;120.50;64.80;;;;;;;7.62;58.49;100727.57;234218;1204;139738;-62
2021/10/09 08:13:52;;;;;;;25.50;12.30;;;;;;;7.93;58.85;100725.09;234057;1204;138621;-64
2021/10/09 08:18:57;;;;;;;25.60;11.80;;;;;;;8.02;58.05;100721.86;234088;1205;138376;-64
2021/10/09 08:24:20;;;;;;;23.90;11.40;;;;;;;8.10;57.81;100715.85;234329;1204;138574;-65
2021/10/09 08:40:09;;;;;;;20.40;11.70;;;;;;;8.21;57.21;100710.44;233983;1204;138390;-65
2021/10/09 08:45:14;;;;;;;226.10;137.50;;;;;;;8.28;57.14;100701.58;233817;1204;138860;-64
2021/10/09 08:50:17;;;;;;;23.00;12.70;;;;;;;8.45;57.38;100697.98;234161;1204;139334;-61
2021/10/09 08:55:22;;;;;;;25.10;11.20;;;;;;;8.61;56.90;100693.33;234449;1204;138708;-65
2021/10/09 09:06:25;;;;;;;18.70;9.90;;;;;;;8.90;56.86;100691.99;234366;1205;138532;-64
2021/10/09 09:43:41;;;;;;;14.70;7.20;;;;;;;9.70;54.76;100683.17;234217;1205;138518;-67
2021/10/09 09:48:46;;;;;;;17.00;7.10;;;;;;;9.80;54.64;100678.61;234205;1205;138303;-65
2021/10/09 09:53:51;;;;;;;13.70;6.80;;;;;;;9.92;54.47;100674.13;234314;1205;138251;-67
2021/10/09 09:58:59;;;;;;;12.60;6.90;;;;;;;10.04;54.15;100671.08;234263;1200;139133;-70
2021/10/09 10:04:02;;;;;;;14.00;6.20;;;;;;;10.17;53.84;100671.17;234262;1205;138604;-67
2021/10/09 10:09:05;;;;;;;13.90;6.40;;;;;;;10.30;53.11;100670.73;234271;1205;138453;-63
2021/10/09 10:14:09;;;;;;;13.20;6.60;;;;;;;10.41;53.17;100657.78;234290;1205;138902;-66
2021/10/09 10:19:12;;;;;;;11.80;6.00;;;;;;;10.59;52.87;100651.09;234204;1204;139203;-62
2021/10/09 10:24:45;;;;;;;13.00;6.30;;;;;;;10.79;52.74;100645.73;234214;1204;139074;-65
2021/10/09 10:30:14;;;;;;;13.20;6.00;;;;;;;10.95;52.44;100639.29;234199;1204;139117;-63
2021/10/09 10:35:29;;;;;;;152.50;90.70;;;;;;;11.05;51.96;100633.02;234245;1205;138874;-68
2021/10/09 10:41:03;;;;;;;12.10;6.10;;;;;;;11.21;51.78;100627.64;233842;1205;139447;-71
2021/10/09 10:56:59;;;;;;;9.80;5.50;;;;;;;11.42;50.39;100625.90;233979;1204;139121;-65
2021/10/09 11:02:16;;;;;;;10.80;5.40;;;;;;;11.42;50.28;100622.69;234173;1205;139098;-66
2021/10/09 11:07:27;;;;;;;11.20;5.40;;;;;;;11.42;50.01;100622.91;234458;1203;138849;-64
2021/10/09 11:12:32;;;;;;;12.20;4.90;;;;;;;11.44;49.99;100617.31;234327;1203;139000;-68
2021/10/09 11:17:40;;;;;;;10.50;5.00;;;;;;;11.44;49.53;100616.95;234046;1204;139013;-64
2021/10/09 11:22:47;;;;;;;16.80;9.50;;;;;;;11.55;50.15;100613.09;234277;1197;139265;-61
2021/10/09 11:27:54;;;;;;;13.10;5.80;;;;;;;11.74;49.84;100606.67;234093;1204;143091;-69
2021/10/09 11:33:01;;;;;;;9.40;5.80;;;;;;;11.74;49.15;100605.26;234087;1204;139221;-67
2021/10/09 11:38:18;;;;;;;9.40;5.30;;;;;;;11.75;49.23;100596.11;234240;1204;138572;-64
2021/10/09 11:44:03;;;;;;;13.90;6.40;;;;;;;11.83;48.96;100600.26;234336;1204;138223;-64
2021/10/09 11:55:08;;;;;;;9.30;5.50;;;;;;;12.09;48.38;100585.12;234145;1204;139489;-65
2021/10/09 12:00:44;;;;;;;11.90;5.90;;;;;;;12.17;48.10;100580.84;233938;1204;138603;-65
2021/10/09 12:06:10;;;;;;;13.30;5.60;;;;;;;12.20;48.04;100575.02;233782;1204;141447;-65
2021/10/09 12:11:15;;;;;;;11.00;5.60;;;;;;;12.38;48.08;100572.60;234288;1204;139186;-69
2021/10/09 12:16:23;;;;;;;13.70;5.80;;;;;;;12.36;47.90;100568.79;234222;1204;139161;-64
2021/10/09 12:21:33;;;;;;;10.10;5.70;;;;;;;12.50;48.61;100571.00;234354;1204;139235;-71
2021/10/09 12:26:36;;;;;;;11.80;5.90;;;;;;;12.62;47.77;100565.27;234293;1204;138689;-64
2021/10/09 12:31:43;;;;;;;13.70;6.50;;;;;;;12.56;47.20;100565.23;234129;1205;138994;-67
2021/10/09 12:36:48;;;;;;;12.10;6.40;;;;;;;12.49;47.28;100560.20;234324;1204;138887;-64
2021/10/09 12:41:53;;;;;;;13.20;6.90;;;;;;;12.43;47.16;100567.23;234259;1204;138808;-65
2021/10/09 12:46:56;;;;;;;12.00;7.00;;;;;;;12.39;46.95;100561.55;234271;1204;138833;-64
2021/10/09 12:52:00;;;;;;;18.20;9.70;;;;;;;12.43;46.92;100556.37;234351;1204;140449;-65
2021/10/09 12:57:06;;;;;;;16.20;7.70;;;;;;;12.51;46.62;100553.65;234322;1203;139030;-65
2021/10/09 13:02:09;;;;;;;14.80;7.20;;;;;;;12.68;46.48;100545.79;234460;1204;138332;-64
2021/10/09 13:07:12;;;;;;;16.50;7.90;;;;;;;12.87;46.31;100540.98;234353;1203;139371;-66
2021/10/09 13:12:17;;;;;;;19.80;8.20;;;;;;;13.06;46.30;100541.84;234372;1204;138695;-64
2021/10/09 13:17:20;;;;;;;18.40;8.50;;;;;;;13.24;46.08;100539.23;234315;1204;138887;-65
2021/10/09 13:22:24;;;;;;;17.40;7.60;;;;;;;13.25;45.19;100533.80;234372;1204;140481;-63
2021/10/09 13:27:27;;;;;;;68.40;42.00;;;;;;;13.16;44.76;100537.09;234219;1204;139429;-62
2021/10/09 13:32:30;;;;;;;83.10;51.30;;;;;;;13.06;45.13;100531.35;234343;1204;139142;-65
2021/10/09 13:37:37;;;;;;;20.80;9.40;;;;;;;13.08;45.03;100527.35;234367;1204;139863;-65
2021/10/09 13:42:40;;;;;;;15.90;7.80;;;;;;;12.97;44.52;100524.80;234289;1204;139408;-62
2021/10/09 13:47:44;;;;;;;18.00;7.00;;;;;;;12.86;44.33;100528.38;234046;1204;138990;-64
2021/10/09 13:52:47;;;;;;;16.60;7.90;;;;;;;12.76;44.26;100527.45;234311;1204;139730;-64
2021/10/09 13:57:50;;;;;;;16.10;7.30;;;;;;;12.68;44.31;100524.24;234255;1203;140574;-62
2021/10/09 14:02:53;;;;;;;18.30;7.10;;;;;;;12.62;44.29;100524.20;234181;1204;140256;-64
2021/10/09 14:07:56;;;;;;;16.00;6.70;;;;;;;12.55;44.27;100524.14;234386;1204;138639;-64
2021/10/09 14:13:00;;;;;;;12.70;6.50;;;;;;;12.50;44.49;100525.75;234284;1205;139284;-63
2021/10/09 14:18:05;;;;;;;697.60;482.00;;;;;;;12.66;45.47;100525.21;234309;1203;138690;-64
2021/10/09 14:23:08;;;;;;;22.10;10.10;;;;;;;12.93;45.24;100524.65;234323;1204;140081;-64
2021/10/09 14:28:12;;;;;;;13.30;8.10;;;;;;;12.89;44.64;100521.98;234118;1204;138856;-62
2021/10/09 14:33:16;;;;;;;12.70;6.80;;;;;;;12.77;44.26;100520.61;234389;1204;138919;-62
2021/10/09 14:38:19;;;;;;;16.00;6.70;;;;;;;12.65;44.46;100524.39;234273;1204;139411;-62
2021/10/09 14:43:22;;;;;;;13.30;6.90;;;;;;;12.53;44.43;100519.21;234476;1204;139256;-62
2021/10/09 14:48:32;;;;;;;10.20;5.70;;;;;;;12.44;44.31;100518.23;234370;1203;139278;-64
2021/10/09 14:53:48;;;;;;;12.10;6.20;;;;;;;12.35;44.34;100518.98;234148;1204;139193;-66
2021/10/09 15:20:26;;;;;;;14.60;7.10;;;;;;;12.09;45.10;100514.10;234179;1205;139021;-63
2021/10/09 15:25:30;;;;;;;28.80;14.90;;;;;;;12.10;45.45;100517.46;234319;1204;139926;-64
2021/10/09 15:30:33;;;;;;;19.10;8.80;;;;;;;12.20;45.44;100518.64;234340;1205;139511;-63
2021/10/09 15:35:36;;;;;;;13.60;7.10;;;;;;;12.13;45.26;100518.55;234073;1204;141045;-64
2021/10/09 15:40:39;;;;;;;13.20;6.70;;;;;;;12.04;45.42;100518.26;234278;1204;139544;-61
2021/10/09 15:45:43;;;;;;;17.30;6.60;;;;;;;11.92;45.32;100520.20;234286;1205;139049;-61
2021/10/09 15:50:47;;;;;;;18.10;6.90;;;;;;;11.81;45.51;100519.77;234371;1203;138910;-63
2021/10/09 15:55:50;;;;;;;15.60;6.90;;;;;;;11.71;45.52;100522.69;234473;1204;138736;-63
2021/10/09 16:00:54;;;;;;;16.30;7.50;;;;;;;11.63;45.77;100523.05;234305;1205;139748;-64
2021/10/09 16:05:57;;;;;;;15.10;8.00;;;;;;;11.51;45.78;100519.77;234378;1204;140266;-63
2021/10/09 16:11:01;;;;;;;20.70;8.70;;;;;;;11.43;45.97;100523.36;234168;1205;139237;-63
2021/10/09 16:16:04;;;;;;;18.20;9.40;;;;;;;11.31;46.54;100521.49;234164;1205;138764;-65
2021/10/09 16:21:07;;;;;;;16.20;8.80;;;;;;;11.15;46.85;100525.02;234259;1205;139041;-63
2021/10/09 16:26:10;;;;;;;18.70;9.70;;;;;;;10.98;46.82;100532.98;234329;1205;140436;-63
2021/10/09 16:31:13;;;;;;;27.40;14.60;;;;;;;10.86;47.61;100539.66;233926;1205;139885;-64
2021/10/09 16:36:16;;;;;;;22.40;10.70;;;;;;;10.84;47.65;100537.63;234114;1205;138973;-62
2021/10/09 16:41:22;;;;;;;20.90;10.30;;;;;;;10.68;47.92;100538.42;234355;1205;139826;-63
2021/10/09 16:46:25;;;;;;;17.30;9.30;;;;;;;10.51;48.09;100542.80;234168;1199;139495;-64
2021/10/09 16:51:30;;;;;;;23.10;10.70;;;;;;;10.35;48.12;100544.09;234306;1204;138766;-64
2021/10/09 16:56:35;;;;;;;20.00;10.70;;;;;;;10.20;48.59;100549.21;234352;1204;138975;-65
2021/10/09 17:01:38;;;;;;;25.90;12.20;;;;;;;10.07;48.85;100555.16;234315;1204;138795;-62
2021/10/09 17:06:41;;;;;;;24.40;12.10;;;;;;;9.96;49.10;100556.11;234031;1204;139290;-63
2021/10/09 17:11:51;;;;;;;25.00;13.40;;;;;;;9.84;49.36;100555.27;234409;1203;138923;-64
2021/10/09 17:16:54;;;;;;;27.10;13.70;;;;;;;9.77;49.52;100561.73;234366;1204;139001;-60
2021/10/09 17:21:57;;;;;;;33.10;16.00;;;;;;;9.72;49.64;100566.14;234239;1205;138670;-63
2021/10/09 17:27:01;;;;;;;115.10;68.40;;;;;;;9.75;50.08;100568.52;234228;1204;140254;-64
2021/10/09 17:32:04;;;;;;;34.90;17.20;;;;;;;9.95;50.18;100568.73;234341;1204;139131;-63
2021/10/09 17:37:07;;;;;;;31.50;15.80;;;;;;;9.93;49.92;100571.98;234321;1196;139333;-61
2021/10/09 17:42:11;;;;;;;32.80;15.60;;;;;;;9.83;49.92;100573.04;234382;1204;138956;-62
2021/10/09 17:47:14;;;;;;;29.30;15.90;;;;;;;9.74;49.97;100572.63;234217;1204;139421;-62
2021/10/09 17:52:19;;;;;;;33.00;16.20;;;;;;;9.66;49.91;100568.45;234324;1204;139973;-63
2021/10/09 17:57:22;;;;;;;35.80;17.40;;;;;;;9.59;50.04;100563.73;234358;1204;139957;-63
2021/10/09 18:02:25;;;;;;;32.80;16.80;;;;;;;9.54;50.21;100563.39;234319;1203;138932;-62
2021/10/09 18:07:28;;;;;;;33.30;18.20;;;;;;;9.48;50.27;100559.14;234483;1204;138695;-63
2021/10/09 18:12:32;;;;;;;41.80;20.10;;;;;;;9.43;50.32;100562.52;234367;1204;138829;-62
2021/10/09 18:17:35;;;;;;;38.10;20.00;;;;;;;9.38;50.57;100560.21;234385;1204;138858;-64
2021/10/09 18:22:38;;;;;;;465.10;345.30;;;;;;;9.33;50.78;100555.20;234213;1204;138770;-60
2021/10/09 18:27:41;;;;;;;57.90;32.70;;;;;;;9.46;51.22;100554.61;234341;1204;139068;-62
2021/10/09 18:32:45;;;;;;;46.70;21.30;;;;;;;9.50;50.88;100549.52;234371;1204;139484;-63
2021/10/09 18:37:48;;;;;;;38.70;17.70;;;;;;;9.43;50.77;100545.85;234516;1204;139243;-61
2021/10/09 18:42:51;;;;;;;35.30;18.40;;;;;;;9.36;50.71;100545.58;234335;1205;138810;-60
2021/10/09 18:47:54;;;;;;;36.70;18.20;;;;;;;9.29;50.76;100543.33;234392;1204;138936;-60
2021/10/09 18:52:57;;;;;;;32.00;17.40;;;;;;;9.25;50.79;100543.80;234347;1204;139018;-60
2021/10/09 18:58:00;;;;;;;33.20;16.10;;;;;;;9.21;50.94;100539.14;234276;1204;138688;-61
2021/10/09 19:03:04;;;;;;;31.70;16.40;;;;;;;9.16;50.72;100533.80;234338;1205;139148;-60
2021/10/09 19:08:07;;;;;;;30.30;15.80;;;;;;;9.12;50.86;100530.03;234451;1204;138835;-61
2021/10/09 19:13:11;;;;;;;32.90;16.00;;;;;;;9.06;50.84;100535.20;234310;1204;138425;-63
2021/10/09 19:18:14;;;;;;;35.00;16.40;;;;;;;9.01;51.03;100533.23;234360;1204;138840;-62
2021/10/09 19:23:17;;;;;;;29.40;15.30;;;;;;;8.95;51.10;100529.70;234015;1204;139121;-60
2021/10/09 19:28:20;;;;;;;29.80;16.10;;;;;;;8.90;51.33;100528.10;234288;1204;138778;-59
2021/10/09 19:33:23;;;;;;;32.60;16.60;;;;;;;8.85;51.24;100529.83;234037;1204;138859;-59
2021/10/09 19:38:26;;;;;;;31.70;16.40;;;;;;;8.82;51.50;100532.60;234385;1204;139293;-59
2021/10/09 19:43:29;;;;;;;32.80;16.20;;;;;;;8.78;51.64;100530.58;234192;1204;138798;-60
2021/10/09 19:48:34;;;;;;;40.60;17.50;;;;;;;8.74;51.47;100531.39;234413;1204;138683;-59
2021/10/09 19:53:41;;;;;;;31.40;16.10;;;;;;;8.72;51.60;100527.36;234453;1204;138854;-60
2021/10/09 19:58:44;;;;;;;28.80;15.60;;;;;;;8.72;51.62;100527.94;234371;1204;139247;-59
2021/10/09 20:03:47;;;;;;;28.60;15.20;;;;;;;8.70;51.66;100529.73;234231;1204;139575;-61
2021/10/09 20:08:55;;;;;;;35.80;15.70;;;;;;;8.68;51.58;100530.17;234411;1205;138473;-60
2021/10/09 20:13:58;;;;;;;33.90;15.40;;;;;;;8.63;51.89;100528.73;234487;1203;138571;-61
2021/10/09 20:19:02;;;;;;;33.60;15.30;;;;;;;8.58;51.96;100526.42;234098;1204;138625;-62
2021/10/09 20:24:05;;;;;;;32.10;15.70;;;;;;;8.52;52.00;100524.98;234401;1204;138870;-62
2021/10/09 20:29:08;;;;;;;30.70;15.10;;;;;;;8.49;51.92;100526.14;234276;1204;138866;-60
2021/10/09 20:34:12;;;;;;;28.80;14.80;;;;;;;8.47;51.93;100524.08;234368;1204;138520;-60
2021/10/09 20:39:15;;;;;;;24.60;13.80;;;;;;;8.45;51.96;100523.25;234392;1204;138523;-59
2021/10/09 20:44:18;;;;;;;26.70;14.00;;;;;;;8.40;51.96;100516.31;234456;1204;139181;-60
2021/10/09 20:49:23;;;;;;;27.70;13.50;;;;;;;8.34;51.91;100517.02;234392;1203;138391;-60
2021/10/09 20:54:26;;;;;;;26.50;13.50;;;;;;;8.21;51.90;100514.38;234333;1203;139657;-60
2021/10/09 20:59:30;;;;;;;26.50;12.90;;;;;;;8.07;52.11;100513.89;234302;1204;138490;-64
2021/10/09 21:04:33;;;;;;;26.00;13.80;;;;;;;7.93;52.22;100510.02;234358;1204;138626;-63
2021/10/09 21:09:36;;;;;;;25.10;12.80;;;;;;;7.86;52.42;100507.92;234387;1204;138862;-63
2021/10/09 21:14:52;;;;;;;24.80;13.60;;;;;;;7.76;52.54;100503.07;234108;1204;139173;-59
2021/10/09 21:25:20;;;;;;;22.70;13.10;;;;;;;7.61;52.94;100505.23;234357;1204;138375;-58
2021/10/09 21:30:29;;;;;;;22.70;13.40;;;;;;;7.54;53.04;100500.11;234367;1204;138761;-56
2021/10/09 21:35:32;;;;;;;27.70;13.70;;;;;;;7.50;53.05;100498.11;234382;1205;138659;-61
2021/10/09 21:40:36;;;;;;;26.60;13.60;;;;;;;7.47;53.29;100493.41;234384;1204;138547;-62
2021/10/09 21:45:39;;;;;;;23.60;12.90;;;;;;;7.49;53.44;100488.59;234233;1205;140274;-59
2021/10/09 21:50:42;;;;;;;24.80;13.50;;;;;;;7.46;53.57;100486.56;234345;1204;139708;-63
2021/10/09 21:55:47;;;;;;;26.50;13.80;;;;;;;7.42;53.80;100483.33;234319;1204;138975;-57
2021/10/09 22:17:22;;;;;;;31.00;14.00;;;;;;;7.13;54.17;100468.50;234068;1204;139607;-59
2021/10/09 22:32:59;;;;;;;31.10;15.00;;;;;;;6.93;54.41;100460.18;234347;1204;138622;-61
2021/10/09 22:38:06;;;;;;;18.50;10.70;;;;;;;6.85;54.67;100453.12;234433;1203;138639;-60
2021/10/09 22:43:09;;;;;;;29.80;15.50;;;;;;;6.81;54.91;100448.63;234069;1204;138990;-61
2021/10/09 22:48:12;;;;;;;30.00;15.60;;;;;;;6.74;54.85;100449.33;234354;1204;138453;-60
2021/10/09 22:53:15;;;;;;;29.90;15.10;;;;;;;6.73;55.03;100451.65;234340;1205;141128;-62
2021/10/09 22:58:19;;;;;;;25.60;14.90;;;;;;;6.69;54.99;100445.77;234348;1204;139409;-61
2021/10/09 23:03:22;;;;;;;29.40;15.30;;;;;;;6.61;55.18;100441.52;234059;1197;138515;-59
2021/10/09 23:08:25;;;;;;;31.90;15.40;;;;;;;6.57;55.15;100441.08;233851;1204;138604;-62
2021/10/09 23:13:29;;;;;;;30.80;14.90;;;;;;;6.53;55.12;100442.08;234330;1205;140657;-64
2021/10/09 23:18:36;;;;;;;31.40;15.00;;;;;;;6.49;55.26;100442.36;234286;1204;138352;-65
2021/10/09 23:23:40;;;;;;;22.70;13.60;;;;;;;6.47;55.42;100438.15;234263;1205;138394;-60
2021/10/09 23:28:43;;;;;;;29.10;14.80;;;;;;;6.45;55.69;100435.57;234336;1204;139257;-61
2021/10/09 23:33:47;;;;;;;26.30;14.20;;;;;;;6.42;55.49;100436.33;234197;1205;138514;-62
2021/10/09 23:38:51;;;;;;;28.30;14.60;;;;;;;6.41;55.75;100433.53;234125;1204;139639;-66
2021/10/09 23:44:10;;;;;;;25.90;14.00;;;;;;;6.39;55.70;100434.10;234080;1203;138912;-66
2021/10/09 23:49:13;;;;;;;28.00;14.30;;;;;;;6.36;55.95;100424.83;234271;1205;139213;-62
2021/10/09 23:54:16;;;;;;;27.90;15.00;;;;;;;6.30;56.17;100423.36;234072;1205;139424;-62
2021/10/09 23:59:22;;;;;;;28.20;14.10;;;;;;;6.23;55.83;100422.82;234244;1205;138996;-59
